createdAt,value
2018-08-28T00:00:18.815Z,79.24
2018-08-28T00:02:47.329Z,79.24
2018-08-28T00:05:15.845Z,78.00
2018-08-28T00:07:44.662Z,78.53
2018-08-28T00:10:13.130Z,78.40
2018-08-28T00:12:41.574Z,78.76
2018-08-28T00:15:10.112Z,79.01
2018-08-28T00:17:38.660Z,79.54
2018-08-28T00:20:07.178Z,79.62
2018-08-28T00:22:35.725Z,79.64
2018-08-28T00:25:04.593Z,79.36
2018-08-28T00:27:33.119Z,79.41
2018-08-28T00:30:01.626Z,79.87
2018-08-28T00:32:30.113Z,79.81
2018-08-28T00:34:58.637Z,79.94
2018-08-28T00:37:27.136Z,79.67
2018-08-28T00:39:55.589Z,79.38
2018-08-28T00:42:24.079Z,79.99
2018-08-28T00:44:52.604Z,79.42
2018-08-28T00:47:21.102Z,79.89
2018-08-28T00:49:49.755Z,79.83
2018-08-28T00:52:18.303Z,80.23
2018-08-28T00:54:46.836Z,79.64
2018-08-28T00:57:15.343Z,78.94
2018-08-28T00:59:43.935Z,79.44
2018-08-28T01:02:12.433Z,79.61
2018-08-28T01:04:40.897Z,80.03
2018-08-28T01:07:09.625Z,79.41
2018-08-28T01:09:38.090Z,79.94
2018-08-28T01:12:06.585Z,80.00
2018-08-28T01:14:35.084Z,79.81
2018-08-28T01:17:03.980Z,80.07
2018-08-28T01:19:32.487Z,80.05
2018-08-28T01:22:00.990Z,79.46
2018-08-28T01:24:29.513Z,80.55
2018-08-28T01:26:58.047Z,80.26
2018-08-28T01:29:26.517Z,80.34
2018-08-28T01:31:55.061Z,79.80
2018-08-28T01:34:23.543Z,79.76
2018-08-28T01:36:52.003Z,80.03
2018-08-28T01:39:20.553Z,79.79
2018-08-28T01:41:49.067Z,80.10
2018-08-28T01:44:18.316Z,79.73
2018-08-28T01:46:46.839Z,79.58
2018-08-28T01:49:15.322Z,79.39
2018-08-28T01:51:43.791Z,80.42
2018-08-28T01:54:12.273Z,80.39
2018-08-28T01:56:40.803Z,79.80
2018-08-28T01:59:09.314Z,79.60
2018-08-28T02:01:37.834Z,80.40
2018-08-28T02:04:06.323Z,79.46
2018-08-28T02:06:34.839Z,79.93
2018-08-28T02:09:03.436Z,79.40
2018-08-28T02:11:31.977Z,79.83
2018-08-28T02:14:00.503Z,80.00
2018-08-28T02:16:29.026Z,79.10
2018-08-28T02:18:57.578Z,80.16
2018-08-28T02:21:26.058Z,80.28
2018-08-28T02:23:54.553Z,80.26
2018-08-28T02:26:23.075Z,80.61
2018-08-28T02:28:52.558Z,80.74
2018-08-28T02:31:21.063Z,81.77
2018-08-28T02:33:49.606Z,81.84
2018-08-28T02:36:18.145Z,81.10
2018-08-28T02:38:46.684Z,81.32
2018-08-28T02:41:15.205Z,81.23
2018-08-28T02:43:43.711Z,81.37
2018-08-28T02:46:12.229Z,82.16
2018-08-28T02:48:40.724Z,82.33
2018-08-28T02:51:09.265Z,82.38
2018-08-28T02:53:37.752Z,82.18
2018-08-28T02:56:06.280Z,81.77
2018-08-28T02:58:35.123Z,81.85
2018-08-28T03:01:03.643Z,81.73
2018-08-28T03:03:32.146Z,81.95
2018-08-28T03:06:00.709Z,82.01
2018-08-28T03:08:29.189Z,81.77
2018-08-28T03:10:57.668Z,81.79
2018-08-28T03:13:26.180Z,82.40
2018-08-28T03:15:54.815Z,82.11
2018-08-28T03:18:23.285Z,82.40
2018-08-28T03:20:51.839Z,82.82
2018-08-28T03:23:20.333Z,83.19
2018-08-28T03:25:48.835Z,84.37
2018-08-28T03:28:17.375Z,83.72
2018-08-28T03:30:45.868Z,83.81
2018-08-28T03:33:14.396Z,83.76
2018-08-28T03:35:42.886Z,84.31
2018-08-28T03:38:12.290Z,83.93
2018-08-28T03:40:42.753Z,83.73
2018-08-28T03:43:11.267Z,84.14
2018-08-28T03:45:39.785Z,83.93
2018-08-28T03:48:08.313Z,83.87
2018-08-28T03:50:36.856Z,82.78
2018-08-28T03:53:06.137Z,83.60
2018-08-28T03:55:34.826Z,83.53
2018-08-28T03:58:03.217Z,82.83
2018-08-28T04:00:31.728Z,82.80
2018-08-28T04:03:00.201Z,83.22
2018-08-28T04:05:29.103Z,83.07
2018-08-28T04:07:57.692Z,82.55
2018-08-28T04:10:26.971Z,82.79
2018-08-28T04:12:55.484Z,82.74
2018-08-28T04:15:23.961Z,82.96
2018-08-28T04:17:52.521Z,82.97
2018-08-28T04:20:21.673Z,82.80
2018-08-28T04:22:50.189Z,83.22
2018-08-28T04:25:19.049Z,82.81
2018-08-28T04:27:48.154Z,83.11
2018-08-28T04:30:16.741Z,83.36
2018-08-28T04:32:45.165Z,84.03
2018-08-28T04:35:13.694Z,83.48
2018-08-28T04:37:42.186Z,83.80
2018-08-28T04:40:10.717Z,83.24
2018-08-28T04:42:39.267Z,83.65
2018-08-28T04:45:07.784Z,84.09
2018-08-28T04:47:36.676Z,83.58
2018-08-28T04:50:05.806Z,83.69
2018-08-28T04:52:34.415Z,83.81
2018-08-28T04:55:03.015Z,83.48
2018-08-28T04:57:31.445Z,83.50
2018-08-28T04:59:59.910Z,83.64
2018-08-28T05:02:35.085Z,83.58
2018-08-28T05:05:05.062Z,82.87
2018-08-28T05:07:33.727Z,83.85
2018-08-28T05:10:02.365Z,82.97
2018-08-28T05:12:30.878Z,82.90
2018-08-28T05:14:59.889Z,82.34
2018-08-28T05:17:28.353Z,82.93
2018-08-28T05:19:56.821Z,83.09
2018-08-28T05:22:26.015Z,83.16
2018-08-28T05:24:54.554Z,83.00
2018-08-28T05:27:23.065Z,82.66
2018-08-28T05:29:51.943Z,82.36
2018-08-28T05:32:20.482Z,82.63
2018-08-28T05:34:49.062Z,82.47
2018-08-28T05:37:17.569Z,82.23
2018-08-28T05:39:46.077Z,82.09
2018-08-28T05:42:14.619Z,82.16
2018-08-28T05:44:43.156Z,81.80
2018-08-28T05:47:11.729Z,81.41
2018-08-28T05:49:41.190Z,81.69
2018-08-28T05:52:09.649Z,81.15
2018-08-28T05:54:38.233Z,81.40
2018-08-28T05:57:06.826Z,80.62
2018-08-28T05:59:35.682Z,80.64
2018-08-28T06:02:04.286Z,80.97
2018-08-28T06:04:32.770Z,80.08
2018-08-28T06:07:01.281Z,79.43
2018-08-28T06:09:29.849Z,79.28
2018-08-28T06:11:58.395Z,79.46
2018-08-28T06:14:26.897Z,78.79
2018-08-28T06:16:55.466Z,78.57
2018-08-28T06:19:23.953Z,78.35
2018-08-28T06:21:52.474Z,78.44
2018-08-28T06:24:22.139Z,78.34
2018-08-28T06:26:50.677Z,78.52
2018-08-28T06:29:19.233Z,77.43
2018-08-28T06:31:47.721Z,78.13
2018-08-28T06:34:16.179Z,77.71
2018-08-28T06:36:44.722Z,78.00
2018-08-28T06:39:13.308Z,78.04
2018-08-28T06:41:41.818Z,77.08
2018-08-28T06:44:10.471Z,77.54
2018-08-28T06:46:39.382Z,76.75
2018-08-28T06:49:07.864Z,76.46
2018-08-28T06:51:36.398Z,76.27
2018-08-28T06:54:04.951Z,75.82
2018-08-28T06:56:33.490Z,76.20
2018-08-28T06:59:01.999Z,76.58
2018-08-28T07:01:30.865Z,75.31
2018-08-28T07:03:59.457Z,74.95
2018-08-28T07:06:27.955Z,74.94
2018-08-28T07:08:56.516Z,74.18
2018-08-28T07:11:25.022Z,73.45
2018-08-28T07:13:53.523Z,73.26
2018-08-28T07:16:22.369Z,72.25
2018-08-28T07:18:50.985Z,71.14
2018-08-28T07:21:19.453Z,71.69
2018-08-28T07:23:47.984Z,71.17
2018-08-28T07:26:16.494Z,70.10
2018-08-28T07:28:45.064Z,69.99
2018-08-28T07:31:13.635Z,69.58
2018-08-28T07:33:42.534Z,69.02
2018-08-28T07:36:11.087Z,69.67
2018-08-28T07:38:39.611Z,68.64
2018-08-28T07:41:08.147Z,68.35
2018-08-28T07:43:36.673Z,68.65
2018-08-28T07:46:05.244Z,67.93
2018-08-28T07:48:33.781Z,67.24
2018-08-28T07:51:02.971Z,66.87
2018-08-28T07:53:31.462Z,66.25
2018-08-28T07:56:00.117Z,66.81
2018-08-28T07:58:28.613Z,67.13
2018-08-28T08:00:57.155Z,66.70
2018-08-28T08:03:25.990Z,65.17
2018-08-28T08:05:55.932Z,64.86
2018-08-28T08:08:24.505Z,63.94
2018-08-28T08:10:53.598Z,65.42
2018-08-28T08:13:22.110Z,65.50
2018-08-28T08:15:50.648Z,64.11
2018-08-28T08:18:19.202Z,64.88
2018-08-28T08:20:47.683Z,64.96
2018-08-28T08:23:16.550Z,63.69
2018-08-28T08:25:45.022Z,62.93
2018-08-28T08:28:13.578Z,64.83
2018-08-28T08:30:42.082Z,64.58
2018-08-28T08:33:10.563Z,63.29
2018-08-28T08:35:39.046Z,64.93
2018-08-28T08:38:07.602Z,63.70
2018-08-28T08:40:36.150Z,63.60
2018-08-28T08:43:04.633Z,63.74
2018-08-28T08:45:33.146Z,63.15
2018-08-28T08:48:01.626Z,65.14
2018-08-28T08:50:30.152Z,64.57
2018-08-28T08:52:58.657Z,63.23
2018-08-28T08:55:27.189Z,64.31
2018-08-28T08:57:55.697Z,63.34
2018-08-28T09:00:24.217Z,63.91
2018-08-28T09:02:59.446Z,64.83
2018-08-28T09:05:27.956Z,64.71
2018-08-28T09:07:56.439Z,66.03
2018-08-28T09:10:24.991Z,65.18
2018-08-28T09:12:53.495Z,65.08
2018-08-28T09:15:21.989Z,65.93
2018-08-28T09:17:50.526Z,67.00
2018-08-28T09:20:19.009Z,65.45
2018-08-28T09:22:47.559Z,64.69
2018-08-28T09:25:16.043Z,64.26
2018-08-28T09:27:44.585Z,63.71
2018-08-28T09:30:13.113Z,63.51
2018-08-28T09:32:41.593Z,62.83
2018-08-28T09:35:10.155Z,62.62
2018-08-28T09:37:38.646Z,61.91
2018-08-28T09:40:07.614Z,61.63
2018-08-28T09:42:36.153Z,63.12
2018-08-28T09:45:04.693Z,62.97
2018-08-28T09:47:33.554Z,63.44
2018-08-28T09:50:02.092Z,62.72
2018-08-28T09:52:30.579Z,64.05
2018-08-28T09:54:59.137Z,63.43
2018-08-28T09:57:27.625Z,62.75
2018-08-28T09:59:56.117Z,62.89
2018-08-28T10:02:24.703Z,62.89
2018-08-28T10:04:53.331Z,62.91
2018-08-28T10:07:21.741Z,60.22
2018-08-28T10:09:50.250Z,60.66
2018-08-28T10:12:18.853Z,60.68
2018-08-28T10:14:47.396Z,59.96
2018-08-28T10:17:15.968Z,60.18
2018-08-28T10:19:44.465Z,59.68
2018-08-28T10:22:13.084Z,60.46
2018-08-28T10:24:41.562Z,58.91
2018-08-28T10:27:10.040Z,58.34
2018-08-28T10:29:38.600Z,59.05
2018-08-28T10:32:07.657Z,58.47
2018-08-28T10:34:36.237Z,57.29
2018-08-28T10:37:04.983Z,56.24
2018-08-28T10:39:33.534Z,56.25
2018-08-28T10:42:02.062Z,54.20
2018-08-28T10:44:30.559Z,55.82
2018-08-28T10:46:59.221Z,55.18
2018-08-28T10:49:27.631Z,56.33
2018-08-28T10:51:56.248Z,56.54
2018-08-28T10:54:24.724Z,55.11
2018-08-28T10:56:53.261Z,54.73
2018-08-28T10:59:21.797Z,54.87
2018-08-28T11:01:50.288Z,54.49
2018-08-28T11:04:26.013Z,54.06
2018-08-28T11:06:55.081Z,53.88
2018-08-28T11:09:23.601Z,53.51
2018-08-28T11:11:52.147Z,54.30
2018-08-28T11:14:20.667Z,53.92
2018-08-28T11:16:49.203Z,53.56
2018-08-28T11:19:17.788Z,54.07
2018-08-28T11:21:46.346Z,53.38
2018-08-28T11:24:14.889Z,54.44
2018-08-28T11:26:43.407Z,54.72
2018-08-28T11:29:11.984Z,55.34
2018-08-28T11:31:40.598Z,55.36
2018-08-28T11:34:09.202Z,55.13
2018-08-28T11:36:37.708Z,56.08
2018-08-28T11:39:07.092Z,56.23
2018-08-28T11:41:35.626Z,55.45
2018-08-28T11:44:04.157Z,56.38
2018-08-28T11:46:32.691Z,56.20
2018-08-28T11:49:01.235Z,55.10
2018-08-28T11:51:30.288Z,53.93
2018-08-28T11:53:58.859Z,54.24
2018-08-28T11:56:27.382Z,54.06
2018-08-28T11:58:55.906Z,53.11
2018-08-28T12:01:24.397Z,53.26
2018-08-28T12:03:52.872Z,52.96
2018-08-28T12:06:21.718Z,52.16
2018-08-28T12:08:50.242Z,52.79
2018-08-28T12:11:18.716Z,52.65
2018-08-28T12:13:47.312Z,52.83
2018-08-28T12:16:15.866Z,52.89
2018-08-28T12:18:44.365Z,51.86
2018-08-28T12:21:13.686Z,51.40
2018-08-28T12:23:42.225Z,52.70
2018-08-28T12:26:10.727Z,52.31
2018-08-28T12:28:39.329Z,52.87
2018-08-28T12:31:07.845Z,51.75
2018-08-28T12:33:37.467Z,51.23
2018-08-28T12:36:05.977Z,48.67
2018-08-28T12:38:34.486Z,49.74
2018-08-28T12:41:03.005Z,46.37
2018-08-28T12:43:31.615Z,50.62
2018-08-28T12:46:00.114Z,46.68
2018-08-28T12:48:28.662Z,47.73
2018-08-28T12:50:57.174Z,49.24
2018-08-28T12:53:25.704Z,49.34
2018-08-28T12:55:54.285Z,49.47
2018-08-28T12:58:22.798Z,50.01
2018-08-28T13:00:51.319Z,50.15
2018-08-28T13:03:19.827Z,50.70
2018-08-28T13:05:49.095Z,52.31
2018-08-28T13:08:18.722Z,52.45
2018-08-28T13:10:47.288Z,50.69
2018-08-28T13:13:15.855Z,50.85
2018-08-28T13:15:44.442Z,51.21
2018-08-28T13:18:12.999Z,52.31
2018-08-28T13:20:41.477Z,52.45
2018-08-28T13:23:10.012Z,51.54
2018-08-28T13:25:38.797Z,52.96
2018-08-28T13:28:07.130Z,52.18
2018-08-28T13:30:35.694Z,53.34
2018-08-28T13:33:04.203Z,54.16
2018-08-28T13:35:32.678Z,54.42
2018-08-28T13:38:01.526Z,53.87
2018-08-28T13:40:30.139Z,53.82
2018-08-28T13:42:58.620Z,54.09
2018-08-28T13:45:27.191Z,54.76
2018-08-28T13:47:55.727Z,54.44
2018-08-28T13:50:24.261Z,52.77
2018-08-28T13:52:52.761Z,52.86
2018-08-28T13:55:21.285Z,52.59
2018-08-28T13:57:49.787Z,53.67
2018-08-28T14:00:18.298Z,52.96
2018-08-28T14:02:47.078Z,51.86
2018-08-28T14:05:15.658Z,51.83
2018-08-28T14:07:45.357Z,51.41
2018-08-28T14:10:14.226Z,50.37
2018-08-28T14:12:42.866Z,50.27
2018-08-28T14:15:11.377Z,50.61
2018-08-28T14:17:39.934Z,50.92
2018-08-28T14:20:08.461Z,50.51
2018-08-28T14:22:37.057Z,52.66
2018-08-28T14:25:05.837Z,52.43
2018-08-28T14:27:34.388Z,51.33
2018-08-28T14:30:02.938Z,52.38
2018-08-28T14:32:31.465Z,51.72
2018-08-28T14:35:00.005Z,52.38
2018-08-28T14:37:28.574Z,49.50
2018-08-28T14:39:57.163Z,50.92
2018-08-28T14:42:25.825Z,49.65
2018-08-28T14:44:54.266Z,48.73
2018-08-28T14:47:22.817Z,51.32
2018-08-28T14:49:51.477Z,49.98
2018-08-28T14:52:19.960Z,52.64
2018-08-28T14:54:48.513Z,52.34
2018-08-28T14:57:17.078Z,52.30
2018-08-28T14:59:45.566Z,52.75
2018-08-28T15:02:14.093Z,50.79
2018-08-28T15:04:43.029Z,50.62
2018-08-28T15:07:11.765Z,51.87
2018-08-28T15:09:40.143Z,50.34
2018-08-28T15:12:08.704Z,51.82
2018-08-28T15:14:37.226Z,51.32
2018-08-28T15:17:05.865Z,51.94
2018-08-28T15:19:34.395Z,50.79
2018-08-28T15:22:02.890Z,51.34
2018-08-28T15:27:13.256Z,51.28
2018-08-28T15:29:41.609Z,51.07
2018-08-28T15:32:10.108Z,48.61
2018-08-28T15:34:38.937Z,48.66
2018-08-28T15:37:07.449Z,49.12
2018-08-28T15:39:35.979Z,48.99
2018-08-28T15:42:04.521Z,49.85
2018-08-28T15:44:33.042Z,47.71
2018-08-28T15:47:01.608Z,50.13
2018-08-28T15:49:30.141Z,51.17
2018-08-28T15:51:58.645Z,50.87
2018-08-28T15:54:28.240Z,48.19
2018-08-28T15:56:56.739Z,49.72
2018-08-28T15:59:25.231Z,49.27
2018-08-28T16:01:53.869Z,51.29
2018-08-28T16:04:22.391Z,51.98
2018-08-28T16:06:52.202Z,52.69
2018-08-28T16:09:20.694Z,51.96
2018-08-28T16:11:49.300Z,52.11
2018-08-28T16:14:17.779Z,51.62
2018-08-28T16:16:47.125Z,51.23
2018-08-28T16:19:16.634Z,51.66
2018-08-28T16:21:55.537Z,52.59
2018-08-28T16:24:24.081Z,53.34
2018-08-28T16:26:53.238Z,51.80
2018-08-28T16:29:21.812Z,52.24
2018-08-28T16:31:50.338Z,51.31
2018-08-28T16:34:19.247Z,50.63
2018-08-28T16:36:47.741Z,51.13
2018-08-28T16:39:16.246Z,52.16
2018-08-28T16:41:44.848Z,51.33
2018-08-28T16:44:13.752Z,52.86
2018-08-28T16:46:42.306Z,52.57
2018-08-28T16:49:10.863Z,54.55
2018-08-28T16:51:39.388Z,53.07
2018-08-28T16:54:07.876Z,53.98
2018-08-28T16:56:36.415Z,52.66
2018-08-28T16:59:05.082Z,52.67
2018-08-28T17:01:33.995Z,55.37
2018-08-28T17:04:02.446Z,55.67
2018-08-28T17:06:30.929Z,55.75
2018-08-28T17:08:59.449Z,55.97
2018-08-28T17:11:27.977Z,55.86
2018-08-28T17:13:56.516Z,55.35
2018-08-28T17:16:25.055Z,57.31
2018-08-28T17:18:53.581Z,56.25
2018-08-28T17:21:22.453Z,56.36
2018-08-28T17:23:50.964Z,56.31
2018-08-28T17:26:19.457Z,56.01
2018-08-28T17:28:47.992Z,56.81
2018-08-28T17:31:16.495Z,57.21
2018-08-28T17:33:45.038Z,58.32
2018-08-28T17:36:13.539Z,59.17
2018-08-28T17:38:42.139Z,59.52
2018-08-28T17:41:10.990Z,59.38
2018-08-28T17:43:39.471Z,58.95
2018-08-28T17:46:07.973Z,59.05
2018-08-28T17:48:36.526Z,59.13
2018-08-28T17:51:05.106Z,59.04
2018-08-28T17:53:33.669Z,60.36
2018-08-28T17:56:02.169Z,60.31
2018-08-28T17:58:30.654Z,60.91
2018-08-28T18:00:59.213Z,60.95
2018-08-28T18:03:27.705Z,61.18
2018-08-28T18:05:56.220Z,61.22
2018-08-28T18:08:24.795Z,61.17
2018-08-28T18:10:53.324Z,61.69
2018-08-28T18:13:21.845Z,62.56
2018-08-28T18:15:50.422Z,62.29
2018-08-28T18:18:19.346Z,63.04
2018-08-28T18:20:47.827Z,64.18
2018-08-28T18:23:16.355Z,63.81
2018-08-28T18:25:45.345Z,65.03
2018-08-28T18:28:13.874Z,64.66
2018-08-28T18:30:42.454Z,65.03
2018-08-28T18:33:11.043Z,66.34
2018-08-28T18:35:39.943Z,65.32
2018-08-28T18:38:08.442Z,65.51
2018-08-28T18:40:36.948Z,65.94
2018-08-28T18:43:05.614Z,67.32
2018-08-28T18:45:34.196Z,67.44
2018-08-28T18:48:02.827Z,67.50
2018-08-28T18:50:31.809Z,66.96
2018-08-28T18:53:00.350Z,68.07
2018-08-28T18:55:28.880Z,67.66
2018-08-28T18:57:57.432Z,67.64
2018-08-28T19:00:26.070Z,68.83
2018-08-28T19:02:55.072Z,69.00
2018-08-28T19:05:23.817Z,67.91
2018-08-28T19:07:52.556Z,68.27
2018-08-28T19:10:21.515Z,68.65
2018-08-28T19:12:50.524Z,69.45
2018-08-28T19:15:19.468Z,68.97
2018-08-28T19:17:48.172Z,68.60
2018-08-28T19:20:17.523Z,68.88
2018-08-28T19:22:46.625Z,68.65
2018-08-28T19:25:15.950Z,69.08
2018-08-28T19:27:45.164Z,69.53
2018-08-28T19:30:14.206Z,70.31
2018-08-28T19:32:43.624Z,70.03
2018-08-28T19:35:12.469Z,69.95
2018-08-28T19:37:41.186Z,69.92
2018-08-28T19:40:09.904Z,70.89
2018-08-28T19:42:38.499Z,71.03
2018-08-28T19:45:07.080Z,71.26
2018-08-28T19:47:35.689Z,71.39
2018-08-28T19:50:04.547Z,70.87
2018-08-28T19:52:33.125Z,72.03
2018-08-28T19:55:01.674Z,71.95
2018-08-28T19:57:30.208Z,72.44
2018-08-28T19:59:58.718Z,72.49
2018-08-28T20:02:27.211Z,72.33
2018-08-28T20:04:56.242Z,72.47
2018-08-28T20:07:24.848Z,72.17
2018-08-28T20:09:53.366Z,72.86
2018-08-28T20:12:21.951Z,72.27
2018-08-28T20:14:50.463Z,72.56
2018-08-28T20:17:19.028Z,73.48
2018-08-28T20:19:47.557Z,72.88
2018-08-28T20:22:16.061Z,73.14
2018-08-28T20:24:44.574Z,72.97
2018-08-28T20:27:13.061Z,73.45
2018-08-28T20:29:41.666Z,73.67
2018-08-28T20:32:10.286Z,73.26
2018-08-28T20:34:38.858Z,74.10
2018-08-28T20:37:07.429Z,73.82
2018-08-28T20:39:35.938Z,73.86
2018-08-28T20:42:04.544Z,73.91
2018-08-28T20:44:33.062Z,74.39
2018-08-28T20:47:01.751Z,75.08
2018-08-28T20:49:30.331Z,74.71
2018-08-28T20:51:58.794Z,74.95
2018-08-28T20:54:27.275Z,74.42
2018-08-28T20:56:55.827Z,74.24
2018-08-28T20:59:24.339Z,74.15
2018-08-28T21:01:52.886Z,74.76
2018-08-28T21:04:21.389Z,74.89
2018-08-28T21:06:49.986Z,74.96
2018-08-28T21:09:18.467Z,74.72
2018-08-28T21:11:46.995Z,75.51
2018-08-28T21:14:15.517Z,75.17
2018-08-28T21:16:44.026Z,76.04
2018-08-28T21:19:12.509Z,76.05
2018-08-28T21:21:41.017Z,75.94
2018-08-28T21:24:09.580Z,75.28
2018-08-28T21:26:38.094Z,75.01
2018-08-28T21:29:06.704Z,75.96
2018-08-28T21:31:35.216Z,76.39
2018-08-28T21:34:03.726Z,76.24
2018-08-28T21:36:32.267Z,76.08
2018-08-28T21:39:01.069Z,75.26
2018-08-28T21:41:29.645Z,76.05
2018-08-28T21:43:58.222Z,75.16
2018-08-28T21:46:26.726Z,76.42
2018-08-28T21:48:55.201Z,75.48
2018-08-28T21:51:24.146Z,75.12
2018-08-28T21:53:52.645Z,75.22
2018-08-28T21:56:21.150Z,75.32
2018-08-28T21:58:49.722Z,75.95
2018-08-28T22:01:18.213Z,75.72
2018-08-28T22:03:46.719Z,74.55
2018-08-28T22:06:20.353Z,75.55
2018-08-28T22:08:48.826Z,75.94
2018-08-28T22:11:17.364Z,75.41
2018-08-28T22:13:45.963Z,75.76
2018-08-28T22:16:14.465Z,76.38
2018-08-28T22:18:42.997Z,75.95
2018-08-28T22:21:11.494Z,75.78
2018-08-28T22:23:40.077Z,75.90
2018-08-28T22:26:08.598Z,76.22
2018-08-28T22:28:37.104Z,76.20
2018-08-28T22:31:06.009Z,76.40
2018-08-28T22:33:34.513Z,76.32
2018-08-28T22:36:03.026Z,75.62
2018-08-28T22:38:31.550Z,75.91
2018-08-28T22:41:00.065Z,76.26
2018-08-28T22:43:28.599Z,76.03
2018-08-28T22:45:57.070Z,75.62
2018-08-28T22:48:25.587Z,75.78
2018-08-28T22:50:54.130Z,76.19
2018-08-28T22:53:22.721Z,76.16
2018-08-28T22:55:51.195Z,75.87
2018-08-28T22:58:19.692Z,75.58
2018-08-28T23:00:48.223Z,75.54
2018-08-28T23:03:16.751Z,76.24
2018-08-28T23:05:45.223Z,75.77
2018-08-28T23:08:13.695Z,76.24
2018-08-28T23:10:42.569Z,76.31
2018-08-28T23:13:11.101Z,76.12
2018-08-28T23:15:39.608Z,76.39
2018-08-28T23:18:08.178Z,76.64
2018-08-28T23:20:36.734Z,77.02
2018-08-28T23:23:05.543Z,76.53
2018-08-28T23:25:34.069Z,76.47
2018-08-28T23:28:02.602Z,75.95
2018-08-28T23:30:31.112Z,75.60
2018-08-28T23:32:59.835Z,76.35
2018-08-28T23:35:28.305Z,76.21
2018-08-28T23:37:56.809Z,75.99
2018-08-28T23:40:25.331Z,75.15
2018-08-28T23:42:53.858Z,74.45
2018-08-28T23:45:22.347Z,74.03
2018-08-28T23:47:50.876Z,75.22
2018-08-28T23:50:19.387Z,74.68
2018-08-28T23:52:47.949Z,74.96
2018-08-28T23:55:16.519Z,75.00
2018-08-28T23:57:45.033Z,75.35
